createdAt,value
2023-05-28T00:00:04.493Z,5.93
2023-05-28T00:02:37.316Z,6.20
2023-05-28T00:05:05.701Z,6.10
2023-05-28T00:07:33.644Z,6.43
2023-05-28T00:10:01.669Z,5.90
2023-05-28T00:12:29.731Z,6.10
2023-05-28T00:14:57.673Z,6.10
2023-05-28T00:17:25.672Z,5.90
2023-05-28T00:19:54.957Z,6.00
2023-05-28T00:22:23.540Z,6.13
2023-05-28T00:24:51.411Z,5.90
2023-05-28T00:27:19.724Z,6.63
2023-05-28T00:29:47.600Z,6.50
2023-05-28T00:32:15.599Z,6.17
2023-05-28T00:34:43.439Z,6.23
2023-05-28T00:37:12.669Z,6.63
2023-05-28T00:39:41.268Z,6.00
2023-05-28T00:42:11.760Z,6.20
2023-05-28T00:44:40.394Z,6.27
2023-05-28T00:47:08.415Z,6.40
2023-05-28T00:49:36.759Z,6.53
2023-05-28T00:52:07.082Z,6.20
2023-05-28T00:54:36.595Z,6.63
2023-05-28T00:57:05.575Z,6.30
2023-05-28T00:59:35.249Z,6.10
2023-05-28T01:02:03.264Z,6.03
2023-05-28T01:04:33.289Z,6.63
2023-05-28T01:07:01.583Z,6.77
2023-05-28T01:09:29.639Z,6.43
2023-05-28T01:11:59.099Z,6.70
2023-05-28T01:14:27.112Z,6.73
2023-05-28T01:16:55.073Z,6.33
2023-05-28T01:19:28.387Z,6.37
2023-05-28T01:22:02.325Z,6.03
2023-05-28T01:24:32.850Z,7.03
2023-05-28T01:27:02.103Z,6.70
2023-05-28T01:29:30.167Z,7.23
2023-05-28T01:31:58.069Z,6.50
2023-05-28T01:34:26.107Z,6.27
2023-05-28T01:36:59.584Z,6.30
2023-05-28T01:39:29.526Z,6.60
2023-05-28T01:41:59.328Z,6.47
2023-05-28T01:44:27.379Z,6.27
2023-05-28T01:46:55.682Z,6.70
2023-05-28T01:49:24.070Z,6.90
2023-05-28T01:51:52.620Z,6.20
2023-05-28T01:54:21.327Z,6.70
2023-05-28T01:56:49.463Z,6.20
2023-05-28T01:59:18.757Z,6.37
2023-05-28T02:01:46.696Z,6.77
2023-05-28T02:04:14.834Z,6.50
2023-05-28T02:06:47.762Z,6.40
2023-05-28T02:09:16.029Z,6.70
2023-05-28T02:11:44.127Z,6.40
2023-05-28T02:14:15.302Z,7.10
2023-05-28T02:16:45.131Z,7.00
2023-05-28T02:19:13.740Z,6.93
2023-05-28T02:21:41.670Z,6.67
2023-05-28T02:24:09.713Z,6.87
2023-05-28T02:26:37.625Z,6.57
2023-05-28T02:29:06.618Z,6.30
2023-05-28T02:31:34.521Z,6.40
2023-05-28T02:34:03.770Z,6.53
2023-05-28T02:36:34.147Z,6.83
2023-05-28T02:39:02.306Z,6.97
2023-05-28T02:41:30.228Z,7.03
2023-05-28T02:43:58.117Z,6.53
2023-05-28T02:46:26.715Z,6.10
2023-05-28T02:48:54.609Z,6.13
2023-05-28T02:51:23.836Z,5.97
2023-05-28T02:53:51.875Z,6.27
2023-05-28T02:56:19.786Z,5.87
2023-05-28T02:58:47.671Z,5.40
2023-05-28T03:01:15.567Z,6.00
2023-05-28T03:03:43.499Z,5.17
2023-05-28T03:06:14.173Z,5.70
2023-05-28T03:08:43.374Z,5.63
2023-05-28T03:11:11.379Z,6.07
2023-05-28T03:13:39.289Z,5.73
2023-05-28T03:16:08.174Z,5.30
2023-05-28T03:18:36.059Z,5.33
2023-05-28T03:21:03.988Z,5.80
2023-05-28T03:23:31.884Z,4.93
2023-05-28T03:26:01.140Z,4.87
2023-05-28T03:28:30.278Z,5.70
2023-05-28T03:30:59.368Z,5.10
2023-05-28T03:33:27.258Z,4.87
2023-05-28T03:35:56.114Z,5.20
2023-05-28T03:38:24.634Z,4.97
2023-05-28T03:40:52.467Z,5.47
2023-05-28T03:43:21.658Z,5.30
2023-05-28T03:45:49.634Z,4.70
2023-05-28T03:48:17.558Z,5.40
2023-05-28T03:50:45.483Z,4.70
2023-05-28T03:53:13.335Z,4.73
2023-05-28T03:55:41.285Z,4.90
2023-05-28T03:58:10.212Z,4.43
2023-05-28T04:00:39.416Z,4.40
2023-05-28T04:03:07.419Z,4.30
2023-05-28T04:05:35.478Z,4.17
2023-05-28T04:08:03.691Z,4.73
2023-05-28T04:10:31.797Z,4.87
2023-05-28T04:12:59.876Z,4.50
2023-05-28T04:15:27.804Z,4.27
2023-05-28T04:17:57.145Z,4.53
2023-05-28T04:20:25.655Z,4.70
2023-05-28T04:22:55.783Z,4.73
2023-05-28T04:25:23.680Z,4.47
2023-05-28T04:27:51.550Z,4.50
2023-05-28T04:30:19.402Z,4.87
2023-05-28T04:32:47.412Z,4.30
2023-05-28T04:35:16.881Z,4.27
2023-05-28T04:37:45.591Z,4.30
2023-05-28T04:40:13.921Z,4.13
2023-05-28T04:42:42.799Z,4.50
2023-05-28T04:45:11.679Z,4.00
2023-05-28T04:47:39.688Z,4.50
2023-05-28T04:50:08.636Z,4.63
2023-05-28T04:52:38.314Z,4.10
2023-05-28T04:55:07.505Z,4.33
2023-05-28T04:57:35.583Z,4.33
2023-05-28T05:00:04.643Z,4.50
2023-05-28T05:02:34.164Z,4.57
2023-05-28T05:05:02.073Z,4.03
2023-05-28T05:07:29.913Z,4.43
2023-05-28T05:09:59.141Z,4.70
2023-05-28T05:12:27.023Z,4.40
2023-05-28T05:14:54.995Z,4.07
2023-05-28T05:17:22.884Z,4.30
2023-05-28T05:19:50.774Z,4.30
2023-05-28T05:22:18.764Z,4.20
2023-05-28T05:24:48.771Z,4.27
2023-05-28T05:27:18.370Z,4.03
2023-05-28T05:29:46.272Z,4.63
2023-05-28T05:32:14.346Z,4.20
2023-05-28T05:34:42.367Z,4.10
2023-05-28T05:37:10.241Z,4.50
2023-05-28T05:39:38.209Z,3.80
2023-05-28T05:42:06.802Z,3.97
2023-05-28T05:44:35.991Z,4.50
2023-05-28T05:47:03.894Z,3.83
2023-05-28T05:49:31.912Z,4.00
2023-05-28T05:51:59.848Z,3.80
2023-05-28T05:54:27.721Z,4.20
2023-05-28T05:56:55.719Z,3.70
2023-05-28T05:59:23.609Z,4.20
2023-05-28T06:01:52.927Z,3.80
2023-05-28T06:04:21.006Z,4.03
2023-05-28T06:06:48.885Z,3.90
2023-05-28T06:09:17.565Z,4.13
2023-05-28T06:11:45.498Z,3.60
2023-05-28T06:14:13.371Z,4.20
2023-05-28T06:16:41.946Z,3.67
2023-05-28T06:19:11.238Z,3.80
2023-05-28T06:21:39.373Z,3.97
2023-05-28T06:24:07.902Z,3.70
2023-05-28T06:26:36.102Z,4.17
2023-05-28T06:29:04.033Z,3.77
2023-05-28T06:31:32.436Z,3.77
2023-05-28T06:34:00.426Z,3.97
2023-05-28T06:36:29.683Z,4.17
2023-05-28T06:38:57.678Z,4.00
2023-05-28T06:41:27.457Z,4.27
2023-05-28T06:43:55.311Z,3.87
2023-05-28T06:46:23.409Z,4.27
2023-05-28T06:48:51.329Z,4.40
2023-05-28T06:51:19.804Z,4.47
2023-05-28T06:53:49.079Z,4.33
2023-05-28T06:56:16.917Z,4.67
2023-05-28T06:58:45.047Z,4.63
2023-05-28T07:01:12.952Z,4.77
2023-05-28T07:03:41.028Z,4.80
2023-05-28T07:06:08.898Z,4.30
2023-05-28T07:08:37.069Z,4.07
2023-05-28T07:11:06.485Z,4.13
2023-05-28T07:13:34.662Z,4.67
2023-05-28T07:16:02.621Z,4.10
2023-05-28T07:18:30.626Z,4.30
2023-05-28T07:20:58.962Z,4.00
2023-05-28T07:23:26.939Z,4.17
2023-05-28T07:25:55.036Z,4.37
2023-05-28T07:28:24.590Z,4.30
2023-05-28T07:30:52.487Z,4.60
2023-05-28T07:33:20.411Z,4.13
2023-05-28T07:35:48.360Z,3.77
2023-05-28T07:38:16.393Z,4.37
2023-05-28T07:40:44.404Z,4.30
2023-05-28T07:43:12.344Z,4.10
2023-05-28T07:45:41.687Z,3.80
2023-05-28T07:48:09.733Z,4.30
2023-05-28T07:50:37.625Z,3.93
2023-05-28T07:53:05.511Z,4.60
2023-05-28T07:55:33.405Z,4.50
2023-05-28T07:58:01.311Z,4.30
2023-05-28T08:00:29.184Z,4.13
2023-05-28T08:02:58.487Z,4.17
2023-05-28T08:05:26.479Z,4.40
2023-05-28T08:07:54.309Z,4.57
2023-05-28T08:10:22.281Z,4.03
2023-05-28T08:12:50.226Z,3.70
2023-05-28T08:15:18.223Z,4.10
2023-05-28T08:17:47.124Z,4.10
2023-05-28T08:20:16.459Z,4.07
2023-05-28T08:22:44.516Z,3.70
2023-05-28T08:25:12.801Z,4.30
2023-05-28T08:27:40.695Z,4.40
2023-05-28T08:30:09.946Z,4.60
2023-05-28T08:32:37.876Z,3.83
2023-05-28T08:35:06.293Z,4.00
2023-05-28T08:37:35.789Z,4.47
2023-05-28T08:40:04.979Z,4.23
2023-05-28T08:42:33.069Z,4.07
2023-05-28T08:45:00.909Z,4.17
2023-05-28T08:47:30.082Z,4.63
2023-05-28T08:49:59.354Z,4.10
2023-05-28T08:52:27.436Z,4.50
2023-05-28T08:54:56.680Z,4.40
2023-05-28T08:57:24.632Z,4.43
2023-05-28T08:59:53.105Z,4.63
2023-05-28T09:02:27.134Z,4.27
2023-05-28T09:04:58.125Z,3.83
2023-05-28T09:07:26.648Z,4.60
2023-05-28T09:09:57.887Z,4.67
2023-05-28T09:12:26.208Z,4.20
2023-05-28T09:14:55.472Z,4.20
2023-05-28T09:17:38.737Z,4.53
2023-05-28T09:20:13.717Z,3.90
2023-05-28T09:22:44.075Z,4.00
2023-05-28T09:25:13.314Z,4.27
2023-05-28T09:27:41.170Z,4.07
2023-05-28T09:30:10.272Z,4.70
2023-05-28T09:32:38.347Z,4.37
2023-05-28T09:35:09.302Z,4.87
2023-05-28T09:37:37.907Z,4.47
2023-05-28T09:40:09.185Z,4.37
2023-05-28T09:42:43.549Z,4.57
2023-05-28T09:45:12.304Z,5.30
2023-05-28T09:47:47.863Z,4.50
2023-05-28T09:50:16.398Z,4.57
2023-05-28T09:52:46.486Z,3.93
2023-05-28T09:55:16.886Z,4.20
2023-05-28T09:57:48.761Z,4.30
2023-05-28T10:00:23.569Z,4.90
2023-05-28T10:02:58.449Z,4.37
2023-05-28T10:05:28.984Z,4.27
2023-05-28T10:07:57.837Z,4.80
2023-05-28T10:10:26.172Z,4.40
2023-05-28T10:12:56.152Z,4.83
2023-05-28T10:15:24.105Z,5.00
2023-05-28T10:17:52.932Z,4.50
2023-05-28T10:20:21.205Z,4.73
2023-05-28T10:22:49.972Z,4.30
2023-05-28T10:25:18.605Z,4.57
2023-05-28T10:27:49.789Z,4.57
2023-05-28T10:30:35.505Z,4.37
2023-05-28T10:33:07.002Z,4.53
2023-05-28T10:35:36.373Z,5.00
2023-05-28T10:38:08.462Z,4.33
2023-05-28T10:40:36.859Z,4.53
2023-05-28T10:43:04.920Z,4.70
2023-05-28T10:45:42.236Z,4.47
2023-05-28T10:48:18.010Z,4.80
2023-05-28T10:50:58.803Z,4.47
2023-05-28T10:53:27.244Z,4.60
2023-05-28T10:55:56.560Z,4.63
2023-05-28T10:58:26.032Z,4.73
2023-05-28T11:00:55.614Z,4.43
2023-05-28T11:03:47.950Z,4.53
2023-05-28T11:06:16.345Z,4.80
2023-05-28T11:08:47.108Z,4.97
2023-05-28T11:11:17.948Z,4.57
2023-05-28T11:13:47.187Z,4.40
2023-05-28T11:16:17.708Z,4.43
2023-05-28T11:19:04.157Z,4.80
2023-05-28T11:21:32.471Z,4.90
2023-05-28T11:24:02.341Z,4.37
2023-05-28T11:26:30.378Z,4.90
2023-05-28T11:28:58.416Z,4.70
2023-05-28T11:31:28.761Z,4.57
2023-05-28T11:33:58.962Z,4.80
2023-05-28T11:36:27.134Z,4.47
2023-05-28T11:39:04.049Z,4.77
2023-05-28T11:41:32.102Z,4.67
2023-05-28T11:44:00.143Z,4.53
2023-05-28T11:46:29.714Z,4.50
2023-05-28T11:48:57.844Z,4.70
2023-05-28T11:51:25.874Z,4.87
2023-05-28T11:53:55.769Z,4.77
2023-05-28T11:56:24.081Z,4.90
2023-05-28T11:58:52.331Z,4.77
2023-05-28T12:01:20.212Z,5.00
2023-05-28T12:03:49.806Z,4.37
2023-05-28T12:06:28.888Z,5.10
2023-05-28T12:09:05.825Z,4.87
2023-05-28T12:11:33.769Z,4.60
2023-05-28T12:14:11.522Z,5.00
2023-05-28T12:16:47.776Z,4.70
2023-05-28T12:19:17.752Z,5.10
2023-05-28T12:21:46.868Z,5.30
2023-05-28T12:24:16.238Z,4.83
2023-05-28T12:26:44.680Z,4.77
2023-05-28T12:29:12.935Z,4.90
2023-05-28T12:31:40.853Z,5.00
2023-05-28T12:34:08.907Z,5.03
2023-05-28T12:36:38.155Z,4.97
2023-05-28T12:39:06.536Z,4.87
2023-05-28T12:41:34.411Z,5.20
2023-05-28T12:44:02.325Z,5.20
2023-05-28T12:46:30.244Z,5.13
2023-05-28T12:48:58.142Z,4.73
2023-05-28T12:51:26.078Z,4.97
2023-05-28T12:53:55.346Z,4.60
2023-05-28T12:56:23.501Z,4.87
2023-05-28T12:58:53.117Z,5.13
2023-05-28T13:01:21.584Z,5.00
2023-05-28T13:03:49.672Z,4.93
2023-05-28T13:06:17.597Z,4.73
2023-05-28T13:08:45.963Z,4.50
2023-05-28T13:11:15.214Z,5.10
2023-05-28T13:13:43.111Z,5.13
2023-05-28T13:16:14.110Z,5.03
2023-05-28T13:18:46.015Z,5.03
2023-05-28T13:21:15.347Z,4.70
2023-05-28T13:23:43.222Z,4.60
2023-05-28T13:26:11.315Z,4.77
2023-05-28T13:28:40.513Z,4.70
2023-05-28T13:31:08.394Z,4.97
2023-05-28T13:33:36.229Z,4.93
2023-05-28T13:36:04.204Z,5.00
2023-05-28T13:38:32.080Z,4.93
2023-05-28T13:41:00.377Z,5.00
2023-05-28T13:43:28.296Z,5.03
2023-05-28T13:45:57.691Z,5.43
2023-05-28T13:48:26.747Z,4.97
2023-05-28T13:50:55.187Z,4.70
2023-05-28T13:53:23.332Z,4.87
2023-05-28T13:55:51.965Z,5.03
2023-05-28T13:58:19.823Z,5.20
2023-05-28T14:00:47.756Z,4.30
2023-05-28T14:03:17.751Z,5.47
2023-05-28T14:05:46.408Z,5.30
2023-05-28T14:08:14.585Z,5.57
2023-05-28T14:10:42.942Z,5.53
2023-05-28T14:13:11.049Z,5.30
2023-05-28T14:15:38.933Z,5.03
2023-05-28T14:18:07.581Z,4.57
2023-05-28T14:20:36.993Z,4.23
2023-05-28T14:23:05.179Z,4.77
2023-05-28T14:25:33.089Z,4.70
2023-05-28T14:28:11.424Z,4.40
2023-05-28T14:30:40.526Z,4.53
2023-05-28T14:33:08.791Z,4.93
2023-05-28T14:35:38.292Z,4.77
2023-05-28T14:38:06.198Z,4.80
2023-05-28T14:40:34.121Z,4.83
2023-05-28T14:43:02.103Z,4.57
2023-05-28T14:45:29.958Z,4.60
2023-05-28T14:47:59.291Z,4.27
2023-05-28T14:50:27.238Z,4.43
2023-05-28T14:52:56.492Z,4.00
2023-05-28T14:55:24.439Z,4.43
2023-05-28T14:57:52.571Z,4.77
2023-05-28T15:00:20.494Z,4.63
2023-05-28T15:02:48.569Z,4.70
2023-05-28T15:05:16.727Z,4.17
2023-05-28T15:07:44.636Z,4.30
2023-05-28T15:10:13.950Z,4.37
2023-05-28T15:12:41.876Z,4.43
2023-05-28T15:15:11.044Z,4.33
2023-05-28T15:17:38.930Z,4.40
2023-05-28T15:20:08.104Z,4.23
2023-05-28T15:22:36.075Z,4.47
2023-05-28T15:25:04.674Z,3.90
2023-05-28T15:27:34.205Z,4.30
2023-05-28T15:30:02.698Z,4.30
2023-05-28T15:32:34.112Z,4.30
2023-05-28T15:35:02.307Z,4.50
2023-05-28T15:37:30.408Z,4.20
2023-05-28T15:40:00.447Z,4.20
2023-05-28T15:42:28.536Z,4.60
2023-05-28T15:44:58.197Z,4.43
2023-05-28T15:47:26.130Z,4.23
2023-05-28T15:49:54.045Z,4.40
2023-05-28T15:52:21.876Z,4.37
2023-05-28T15:54:50.058Z,4.20
2023-05-28T15:57:18.043Z,4.27
2023-05-28T15:59:46.456Z,4.10
2023-05-28T16:02:17.663Z,4.43
2023-05-28T16:04:45.903Z,4.23
2023-05-28T16:07:14.862Z,4.50
2023-05-28T16:09:43.049Z,4.10
2023-05-28T16:12:13.386Z,4.30
2023-05-28T16:14:46.248Z,4.73
2023-05-28T16:17:16.144Z,4.20
2023-05-28T16:19:44.673Z,4.33
2023-05-28T16:22:13.487Z,4.40
2023-05-28T16:24:41.960Z,4.43
2023-05-28T16:27:10.927Z,4.33
2023-05-28T16:29:39.171Z,4.67
2023-05-28T16:32:08.528Z,4.40
2023-05-28T16:34:38.326Z,4.70
2023-05-28T16:37:07.069Z,4.73
2023-05-28T16:39:35.693Z,4.30
2023-05-28T16:42:03.916Z,4.27
2023-05-28T16:44:32.646Z,3.93
2023-05-28T16:47:01.937Z,4.30
2023-05-28T16:49:30.303Z,4.43
2023-05-28T16:51:59.948Z,4.50
2023-05-28T16:54:28.446Z,4.17
2023-05-28T16:56:56.600Z,4.90
2023-05-28T16:59:24.484Z,4.33
2023-05-28T17:01:53.164Z,4.13
2023-05-28T17:04:21.229Z,4.33
2023-05-28T17:06:53.615Z,4.20
2023-05-28T17:09:22.990Z,4.73
2023-05-28T17:11:51.264Z,4.63
2023-05-28T17:14:19.110Z,4.77
2023-05-28T17:16:47.359Z,4.80
2023-05-28T17:19:15.498Z,5.03
2023-05-28T17:21:45.540Z,4.90
2023-05-28T17:24:13.553Z,4.43
2023-05-28T17:26:42.911Z,4.80
2023-05-28T17:29:11.040Z,4.40
2023-05-28T17:31:38.996Z,4.30
2023-05-28T17:34:08.149Z,4.80
2023-05-28T17:36:36.039Z,4.60
2023-05-28T17:39:04.053Z,5.20
2023-05-28T17:41:32.506Z,4.93
2023-05-28T17:44:02.672Z,5.10
2023-05-28T17:46:34.223Z,5.23
2023-05-28T17:49:03.674Z,5.60
2023-05-28T17:51:32.548Z,5.43
2023-05-28T17:54:00.898Z,4.90
2023-05-28T17:56:28.880Z,4.77
2023-05-28T17:58:56.796Z,5.20
2023-05-28T18:01:26.422Z,5.10
2023-05-28T18:03:54.501Z,5.57
2023-05-28T18:06:22.415Z,5.30
2023-05-28T18:08:50.302Z,5.30
2023-05-28T18:11:20.414Z,5.07
2023-05-28T18:13:48.284Z,4.60
2023-05-28T18:16:17.023Z,5.00
2023-05-28T18:18:46.382Z,4.50
2023-05-28T18:21:14.599Z,4.57
2023-05-28T18:23:44.522Z,4.07
2023-05-28T18:26:12.864Z,4.50
2023-05-28T18:28:42.909Z,4.33
2023-05-28T18:31:11.199Z,4.17
2023-05-28T18:33:39.532Z,4.67
2023-05-28T18:36:08.931Z,4.50
2023-05-28T18:38:36.810Z,4.60
2023-05-28T18:41:04.720Z,4.30
2023-05-28T18:43:32.603Z,4.30
2023-05-28T18:46:00.564Z,4.00
2023-05-28T18:48:28.745Z,4.17
2023-05-28T18:50:56.856Z,4.00
2023-05-28T18:53:26.442Z,4.00
2023-05-28T18:55:55.586Z,3.70
2023-05-28T18:58:23.444Z,3.60
2023-05-28T19:00:51.467Z,4.03
2023-05-28T19:03:19.448Z,3.50
2023-05-28T19:05:47.482Z,3.90
2023-05-28T19:08:15.880Z,3.90
2023-05-28T19:10:45.159Z,3.77
2023-05-28T19:13:12.971Z,3.87
2023-05-28T19:15:40.980Z,3.90
2023-05-28T19:18:09.219Z,3.80
2023-05-28T19:20:37.744Z,3.60
2023-05-28T19:23:06.057Z,3.80
2023-05-28T19:25:33.988Z,3.80
2023-05-28T19:28:03.356Z,3.80
2023-05-28T19:30:31.237Z,3.80
2023-05-28T19:32:59.192Z,3.87
2023-05-28T19:35:27.467Z,3.80
2023-05-28T19:37:55.643Z,4.23
2023-05-28T19:40:23.798Z,4.07
2023-05-28T19:42:51.692Z,3.83
2023-05-28T19:45:21.246Z,3.70
2023-05-28T19:47:49.219Z,3.80
2023-05-28T19:50:17.251Z,4.13
2023-05-28T19:52:45.123Z,3.90
2023-05-28T19:55:15.912Z,3.83
2023-05-28T19:57:43.827Z,4.13
2023-05-28T20:00:14.183Z,4.23
2023-05-28T20:02:43.629Z,4.30
2023-05-28T20:05:11.724Z,3.87
2023-05-28T20:07:41.483Z,4.07
2023-05-28T20:10:10.622Z,3.73
2023-05-28T20:12:39.610Z,4.00
2023-05-28T20:15:08.745Z,3.80
2023-05-28T20:17:36.690Z,4.07
2023-05-28T20:20:09.514Z,4.43
2023-05-28T20:22:39.481Z,3.63
2023-05-28T20:25:09.743Z,4.43
2023-05-28T20:27:37.882Z,4.00
2023-05-28T20:30:07.151Z,4.10
2023-05-28T20:32:35.074Z,4.30
2023-05-28T20:35:03.284Z,4.17
2023-05-28T20:37:32.840Z,3.87
2023-05-28T20:40:01.077Z,4.27
2023-05-28T20:42:30.577Z,3.97
2023-05-28T20:45:02.574Z,4.03
2023-05-28T20:47:30.814Z,4.00
2023-05-28T20:49:58.731Z,4.33
2023-05-28T20:52:26.972Z,4.27
2023-05-28T20:54:56.158Z,4.17
2023-05-28T20:57:46.388Z,4.10
2023-05-28T21:00:17.057Z,4.03
2023-05-28T21:02:45.787Z,4.37
2023-05-28T21:05:14.074Z,4.07
2023-05-28T21:07:42.042Z,4.67
2023-05-28T21:10:12.409Z,4.60
2023-05-28T21:12:40.362Z,4.40
2023-05-28T21:15:10.117Z,4.53
2023-05-28T21:17:38.187Z,4.47
2023-05-28T21:20:07.555Z,4.50
2023-05-28T21:22:35.608Z,4.70
2023-05-28T21:25:03.506Z,4.63
2023-05-28T21:27:32.824Z,5.07
2023-05-28T21:30:00.693Z,4.57
2023-05-28T21:32:28.580Z,4.57
2023-05-28T21:34:56.408Z,4.53
2023-05-28T21:37:24.227Z,4.47
2023-05-28T21:39:54.209Z,5.20
2023-05-28T21:42:22.361Z,5.30
2023-05-28T21:44:51.593Z,4.70
2023-05-28T21:47:19.571Z,5.17
2023-05-28T21:49:47.779Z,5.10
2023-05-28T21:52:15.685Z,4.70
2023-05-28T21:54:43.570Z,5.00
2023-05-28T21:57:11.456Z,4.70
2023-05-28T21:59:39.366Z,4.90
2023-05-28T22:02:08.701Z,4.87
2023-05-28T22:04:38.537Z,4.83
2023-05-28T22:07:07.175Z,4.40
2023-05-28T22:09:35.157Z,4.80
2023-05-28T22:12:03.115Z,4.60
2023-05-28T22:14:31.176Z,4.53
2023-05-28T22:16:59.069Z,4.67
2023-05-28T22:19:28.306Z,4.90
2023-05-28T22:21:56.133Z,4.83
2023-05-28T22:24:24.048Z,5.00
2023-05-28T22:26:52.602Z,4.90
2023-05-28T22:29:20.473Z,4.60
2023-05-28T22:31:48.834Z,4.90
2023-05-28T22:34:16.696Z,4.57
2023-05-28T22:36:47.772Z,4.80
2023-05-28T22:39:15.807Z,4.93
2023-05-28T22:41:43.656Z,4.83
2023-05-28T22:44:12.568Z,4.53
2023-05-28T22:46:41.029Z,4.57
2023-05-28T22:49:10.741Z,4.23
2023-05-28T22:51:38.802Z,4.90
2023-05-28T22:54:09.679Z,4.63
2023-05-28T22:56:39.384Z,4.67
2023-05-28T22:59:07.898Z,4.60
2023-05-28T23:01:35.877Z,4.43
2023-05-28T23:04:04.453Z,4.73
2023-05-28T23:06:32.387Z,4.67
2023-05-28T23:09:00.211Z,4.53
2023-05-28T23:11:29.534Z,4.83
2023-05-28T23:13:57.387Z,4.70
2023-05-28T23:16:25.339Z,4.73
2023-05-28T23:18:53.208Z,5.00
2023-05-28T23:21:21.509Z,5.00
2023-05-28T23:23:49.469Z,4.90
2023-05-28T23:26:17.577Z,5.27
2023-05-28T23:28:47.634Z,4.63
2023-05-28T23:31:16.135Z,4.77
2023-05-28T23:33:44.273Z,5.40
2023-05-28T23:36:12.177Z,4.93
2023-05-28T23:38:40.114Z,5.27
2023-05-28T23:41:08.046Z,5.10
2023-05-28T23:43:36.247Z,5.80
2023-05-28T23:46:07.163Z,5.47
2023-05-28T23:48:35.257Z,5.37
2023-05-28T23:51:03.562Z,5.17
2023-05-28T23:53:31.433Z,5.70
2023-05-28T23:56:00.010Z,5.03
2023-05-28T23:58:27.861Z,5.00
